Hoogeveen Airport

EHHO · Drenthe, Holandia

Historia METAR EHHO · Hoogeveen Airport

Poniżej widzisz METAR-y z ostatnich kilku dni. Wybierz rok, aby przeglądać starsze METAR-y, począwszy od roku 2007.

4 marca 2024

Czas Kod Pogoda Temp. Widoczność Sufit Wiatr METAR/SPECI
22:25
L
7 °C 1,1 km 300 ft 330° 330° 1 kt METAR EHGG 042125Z AUTO 33001KT 1100 R23/1700D BR BKN000/// OVC003/// 07/07 Q1012 TEMPO 0600 FG
21:55
L
7 °C 2,9 km 200 ft 320° 320° 2 kt METAR EHGG 042055Z AUTO 32002KT 2900 BR BKN000 OVC002 07/07 Q1012 TEMPO BKN001
20:25
L
7 °C 3,4 km 300 ft 340° 340° 3 kt METAR EHGG 041925Z AUTO 34003KT 270V050 3400 BR BKN003 OVC004 07/07 Q1012 NOSIG
19:55
L
7 °C 4,5 km 400 ft 280° 280° 3 kt METAR EHGG 041855Z AUTO 28003KT 250V320 4500 BR OVC004 07/07 Q1012 NOSIG
19:25
L
7 °C 4,1 km 300 ft 290° 290° 3 kt METAR EHGG 041825Z AUTO 29003KT 260V330 4100 BR OVC003 07/07 Q1012 NOSIG
18:55
L
7 °C 3,2 km 300 ft 310° 310° 3 kt METAR EHGG 041755Z AUTO 31003KT 280V340 3200 BR OVC003 07/07 Q1012 NOSIG
18:25
L
8 °C 2,7 km 300 ft 300° 300° 4 kt METAR EHGG 041725Z AUTO 30004KT 270V330 2700 BR BKN003 OVC004 08/07 Q1012 NOSIG
17:55
I
8 °C 5 km 500 ft 320° 320° 3 kt METAR EHGG 041655Z AUTO 32003KT 270V340 5000 OVC005 08/07 Q1012 TEMPO 4000
17:25
I
8 °C 6 km 500 ft 330° 330° 4 kt METAR EHGG 041625Z AUTO 33004KT 290V010 6000 OVC005 08/07 Q1011 NOSIG
16:55
I
8 °C 5 km 600 ft 310° 310° 5 kt METAR EHGG 041555Z AUTO 31005KT 5000 SCT004 OVC006 08/07 Q1011 NOSIG
16:25
I
8 °C 4,3 km 500 ft 300° 300° 7 kt METAR EHGG 041525Z AUTO 30007KT 4300 BR OVC005 08/07 Q1011 NOSIG
15:55
I
9 °C 5 km 600 ft 290° 290° 5 kt METAR EHGG 041455Z AUTO 29005KT 250V320 5000 BKN006 OVC007 09/07 Q1011 NOSIG
15:25
I
9 °C 5 km 600 ft 300° 300° 5 kt METAR EHGG 041425Z AUTO 30005KT 5000 OVC006 09/07 Q1011 TEMPO 9000 BKN012
14:55
I
9 °C 5 km 700 ft 300° 300° 6 kt METAR EHGG 041355Z AUTO 30006KT 5000 SCT006 BKN007 OVC009 09/07 Q1011 NOSIG
14:25
I
8 °C 3,6 km 500 ft 290° 290° 5 kt METAR EHGG 041325Z AUTO 29005KT 250V330 3600 BR BKN005 OVC006 08/07 Q1011 BECMG 6000 NSW
13:55
L
8 °C 2,4 km 300 ft 290° 290° 3 kt METAR EHGG 041255Z AUTO 29003KT 260V320 2400 BR OVC003/// 08/08 Q1011 BECMG 6000 NSW BKN006
13:25
L
8 °C 2,6 km 300 ft 300° 300° 5 kt METAR EHGG 041225Z AUTO 30005KT 260V320 2600 BR OVC003/// 08/07 Q1011 BECMG 6000 NSW BKN006
12:55
L
8 °C 3,1 km 300 ft 290° 290° 4 kt METAR EHGG 041155Z AUTO 29004KT 250V320 3100 BR OVC003 08/07 Q1011 BECMG 6000 NSW BKN006
12:25
L
8 °C 1,9 km 200 ft 290° 290° 4 kt METAR EHGG 041125Z AUTO 29004KT 250V340 1900 BR OVC002/// 08/07 Q1011 BECMG 4000 BKN004
11:55
L
8 °C 2,1 km 100 ft 280° 280° 5 kt METAR EHGG 041055Z AUTO 28005KT 240V330 2100 BR BKN001/// OVC002/// 08/07 Q1011 BECMG 4000 BKN004
11:25
L
8 °C 1,7 km 100 ft 300° 300° 4 kt METAR EHGG 041025Z AUTO 30004KT 270V340 1700 R23/1400N BR OVC001/// 08/07 Q1010 BECMG 4000 BKN002
10:55
L
7 °C 1,8 km 100 ft 310° 310° 5 kt METAR EHGG 040955Z AUTO 31005KT 270V350 1800 BR OVC001/// 07/07 Q1010 BECMG 4000 BR BKN004
10:25
L
7 °C 750 m 100 ft 330° 330° 5 kt METAR EHGG 040925Z AUTO 33005KT 290V020 0750 R23/0900N FG VV001 07/07 Q1010 BECMG 1800 BR BKN002
09:55
L
7 °C 300 m - 310° 310° 3 kt METAR EHGG 040855Z AUTO 31003KT 280V340 0300 R23/0550N FG VV000 07/07 Q1010 BECMG 1200 BR BKN002
09:25
L
6 °C 150 m - 290° 290° 3 kt METAR EHGG 040825Z AUTO 29003KT 260V330 0150 R23/0300N FG VV000 06/06 Q1010 BECMG 0900 BKN001
08:55
L
5 °C 200 m - 270° 270° 4 kt METAR EHGG 040755Z AUTO 27004KT 240V300 0200 R23/0350N FG VV000 05/05 Q1010 BECMG 1200 BR BKN002
08:25
L
5 °C 500 m - 270° 270° 3 kt METAR EHGG 040725Z AUTO 27003KT 240V320 0500 R23/0800N FG VV000 05/04 Q1010 BECMG 1200 BR BKN002
07:55
L
5 °C 500 m - 240° 240° 4 kt METAR EHGG 040655Z AUTO 24004KT 0500 R23/1200D FG VV000 05/04 Q1009 TEMPO 1200 BR BKN002
07:25
L
5 °C 1,8 km 300 ft Var Var 2 kt METAR EHGG 040625Z AUTO VRB02KT 1800 BR FEW000/// SCT002/// OVC003/// 05/05 Q1009 TEMPO 1200 BKN002
06:55
L
5 °C 2,3 km 400 ft 360° 360° 0 kt METAR EHGG 040555Z AUTO 00000KT 2300 BR OVC004/// 05/05 Q1009 TEMPO BKN002
06:25
L
5 °C 2,2 km 400 ft Var Var 2 kt METAR EHGG 040525Z AUTO VRB02KT 2200 BR OVC004/// 05/05 Q1008 TEMPO BKN002
05:55
L
4 °C 1,6 km 300 ft 240° 240° 4 kt METAR EHGG 040455Z AUTO 24004KT 1600 BR OVC003/// 04/04 Q1008
05:25
L
2 °C 150 m - 360° 360° 0 kt METAR EHGG 040425Z AUTO 00000KT 0150 R05/0450N FG OVC000/// 02/02 Q1008
04:55
L
3 °C 400 m - 040° 040° 2 kt METAR EHGG 040355Z AUTO 04002KT 0400 R05/1900U FG FEW000/// 03/02 Q1007
04:25
L
2 °C 550 m 3.300 ft 360° 360° 0 kt METAR EHGG 040325Z AUTO 00000KT 0550 R05/1800U FG OVC033 02/01 Q1007
03:55
L
3 °C 300 m - 060° 060° 2 kt METAR EHGG 040255Z AUTO 06002KT 0300 R05/0275N FG SCT032 03/03 Q1007
03:25
I
3 °C 2,5 km - 050° 050° 3 kt METAR EHGG 040225Z AUTO 05003KT 2500 R05/0550D BR NSC 03/02 Q1007
02:55
I
3 °C 2,1 km - 070° 070° 2 kt METAR EHGG 040155Z AUTO 07002KT 2100 BR NSC 03/03 Q1006
02:25
I
3 °C 4,3 km - 050° 050° 7 kt METAR EHGG 040125Z AUTO 05007KT 4300 BR NSC 03/03 Q1006
01:55
I
4 °C 3,2 km - 050° 050° 5 kt METAR EHGG 040055Z AUTO 05005KT 3200 BR NSC 04/03 Q1006
01:25
L
2 °C 1,2 km - 040° 040° 3 kt METAR EHGG 040025Z AUTO 04003KT 1200 R05/1300D FG NSC 02/02 Q1006
00:55
I
2 °C 1,6 km - 320° 320° 3 kt METAR EHGG 032355Z AUTO 32003KT 1600 R05/0650N BR NSC 02/02 Q1006
00:25
I
2 °C 2,1 km - 340° 340° 2 kt METAR EHGG 032325Z AUTO 34002KT 2100 R05/0600U BR NSC 02/02 Q1005

3 marca 2024

Czas Kod Pogoda Temp. Widoczność Sufit Wiatr METAR/SPECI
23:55
L
3 °C 900 m - 340° 340° 2 kt METAR EHGG 032255Z AUTO 34002KT 0900 R05/0450D BR NSC 03/02 Q1005
23:25
I
3 °C 2,6 km - 350° 350° 1 kt METAR EHGG 032225Z AUTO 35001KT 2600 BR NSC 03/03 Q1005
22:55
M
5 °C 6 km - 020° 020° 1 kt METAR EHGG 032155Z AUTO 02001KT 6000 NSC 05/04 Q1005
22:25
M
6 °C 7 km - 060° 060° 4 kt METAR EHGG 032125Z AUTO 06004KT 7000 NSC 06/05 Q1004 TEMPO 3000
21:55
V
7 °C 8 km - 070° 070° 4 kt METAR EHGG 032055Z AUTO 07004KT 8000 NSC 07/06 Q1004 TEMPO 3000
21:25
M
6 °C 6 km - 080° 080° 4 kt METAR EHGG 032025Z AUTO 08004KT 6000 NSC 06/06 Q1004 TEMPO 3000
20:55
M
6 °C 6 km - 060° 060° 4 kt METAR EHGG 031955Z AUTO 06004KT 6000 NSC 06/05 Q1004 TEMPO 3000
20:25
M
7 °C 7 km - 060° 060° 3 kt METAR EHGG 031925Z AUTO 06003KT 7000 NSC 07/06 Q1004 NOSIG
19:55
V
8 °C 9 km - 070° 070° 3 kt METAR EHGG 031855Z AUTO 07003KT 9000 NSC 08/06 Q1004 NOSIG
19:25
V
8 °C 10 km+ - 080° 080° 3 kt METAR EHGG 031825Z AUTO 08003KT 9999 NSC 08/07 Q1003 NOSIG
18:55
V
9 °C 10 km+ - 070° 070° 4 kt METAR EHGG 031755Z AUTO 07004KT 9999 NSC 09/06 Q1003 NOSIG
18:25
V
11 °C 10 km+ - 090° 090° 5 kt METAR EHGG 031725Z AUTO 09005KT 060V120 9999 NSC 11/07 Q1003 NOSIG
17:55
V
12 °C 10 km+ - 080° 080° 8 kt METAR EHGG 031655Z AUTO 08008KT 040V110 9999 NSC 12/07 Q1002 NOSIG
17:25
V
13 °C 10 km+ - 090° 090° 7 kt METAR EHGG 031625Z AUTO 09007KT 060V120 9999 NSC 13/07 Q1002 NOSIG
16:55
V
13 °C 10 km+ - 080° 080° 9 kt METAR EHGG 031555Z AUTO 08009KT 050V120 9999 NSC 13/07 Q1001 NOSIG
16:25
V
14 °C 10 km+ - 080° 080° 10 kt METAR EHGG 031525Z AUTO 08010KT 9999 NSC 14/08 Q1001 NOSIG
15:55
V
14 °C 10 km+ - 070° 070° 11 kt METAR EHGG 031455Z AUTO 07011KT 050V110 9999 NSC 14/08 Q1001 NOSIG
15:25
V
15 °C 10 km+ - 070° 070° 11 kt METAR EHGG 031425Z AUTO 07011KT 040V110 9999 NSC 15/08 Q1001 NOSIG
14:55
V
14 °C 10 km+ - 080° 080° 9 kt METAR EHGG 031355Z AUTO 08009KT 050V110 9999 NSC 14/08 Q1001 NOSIG
14:25
V
13 °C 10 km+ - 070° 070° 8 kt METAR EHGG 031325Z AUTO 07008KT 040V110 9999 NSC 13/08 Q1001 NOSIG
13:55
V
13 °C 10 km+ - 080° 080° 7 kt METAR EHGG 031255Z AUTO 08007KT 050V110 9999 NSC 13/07 Q1002 NOSIG
13:25
V
13 °C 10 km+ - 070° 070° 7 kt METAR EHGG 031225Z AUTO 07007KT 040V100 9999 NSC 13/08 Q1002 NOSIG
12:55
V
13 °C 10 km+ - 090° 090° 6 kt METAR EHGG 031155Z AUTO 09006KT 050V120 9999 NSC 13/07 Q1002 NOSIG
12:25
V
12 °C 10 km+ - 100° 100° 6 kt METAR EHGG 031125Z AUTO 10006KT 070V140 9999 NSC 12/07 Q1002 NOSIG
11:55
V
11 °C 10 km+ - 090° 090° 7 kt METAR EHGG 031055Z AUTO 09007KT 060V130 9999 NSC 11/07 Q1002 NOSIG
11:25
V
10 °C 10 km+ - 100° 100° 6 kt METAR EHGG 031025Z AUTO 10006KT 060V150 9999 NSC 10/06 Q1002 NOSIG
10:55
V
10 °C 10 km+ - 100° 100° 6 kt METAR EHGG 030955Z AUTO 10006KT 070V140 9999 NSC 10/06 Q1002 NOSIG
10:25
V
10 °C 10 km+ - 130° 130° 6 kt METAR EHGG 030925Z AUTO 13006KT 090V170 9999 NSC 10/06 Q1002 NOSIG
09:55
V
9 °C 10 km+ - 110° 110° 5 kt METAR EHGG 030855Z AUTO 11005KT 080V150 9999 NSC 09/06 Q1002 NOSIG
09:25
V
9 °C 10 km+ - 100° 100° 8 kt METAR EHGG 030825Z AUTO 10008KT 060V130 9999 NSC 09/06 Q1002 NOSIG
08:55
V
8 °C 10 km+ - 120° 120° 6 kt METAR EHGG 030755Z AUTO 12006KT 080V160 9999 NSC 08/05 Q1002 NOSIG
08:25
V
7 °C 10 km+ - 100° 100° 7 kt METAR EHGG 030725Z AUTO 10007KT 070V130 9999 NSC 07/05 Q1001 NOSIG
07:55
V
7 °C 10 km+ - 100° 100° 6 kt METAR EHGG 030655Z AUTO 10006KT 060V140 9999 NSC 07/04 Q1001 NOSIG
07:25
V
7 °C 10 km+ - 100° 100° 6 kt METAR EHGG 030625Z AUTO 10006KT 060V130 9999 NSC 07/04 Q1001 NOSIG
06:55
V
7 °C 10 km+ - 100° 100° 8 kt METAR EHGG 030555Z AUTO 10008KT 070V130 9999 NSC 07/04 Q1001 NOSIG
06:25
V
7 °C 10 km+ - 100° 100° 7 kt METAR EHGG 030525Z AUTO 10007KT 070V130 9999 NSC 07/04 Q1001 NOSIG
05:55
V
7 °C 10 km+ - 100° 100° 7 kt METAR EHGG 030455Z AUTO 10007KT 070V130 9999 NCD 07/04 Q1000
05:25
V
8 °C 10 km+ - 090° 090° 7 kt METAR EHGG 030425Z AUTO 09007KT 9999 NSC 08/04 Q1000
04:55
V
8 °C 10 km+ - 090° 090° 8 kt METAR EHGG 030355Z AUTO 09008KT 9999 NSC 08/04 Q1000
04:25
V
8 °C 10 km+ - 100° 100° 8 kt METAR EHGG 030325Z AUTO 10008KT 070V130 9999 NSC 08/05 Q1000
03:55
V
8 °C 10 km+ - 100° 100° 7 kt METAR EHGG 030255Z AUTO 10007KT 9999 NSC 08/05 Q1000
03:25
V
8 °C 10 km+ - 100° 100° 6 kt METAR EHGG 030225Z AUTO 10006KT 070V140 9999 NSC 08/05 Q1000
02:55
V
8 °C 10 km+ - 100° 100° 6 kt METAR EHGG 030155Z AUTO 10006KT 070V130 9999 NSC 08/05 Q1000
02:25
V
8 °C 10 km+ - 100° 100° 5 kt METAR EHGG 030125Z AUTO 10005KT 070V130 9999 NSC 08/05 Q1000
01:55
V
8 °C 10 km+ - 100° 100° 6 kt METAR EHGG 030055Z AUTO 10006KT 9999 NSC 08/04 Q1000
01:25
V
8 °C 10 km+ - 100° 100° 6 kt METAR EHGG 030025Z AUTO 10006KT 070V130 9999 NSC 08/04 Q1001
00:55
V
7 °C 10 km+ - 100° 100° 5 kt METAR EHGG 022355Z AUTO 10005KT 9999 NCD 07/04 Q1001
00:25
V
8 °C 10 km+ - 100° 100° 5 kt METAR EHGG 022325Z AUTO 10005KT 070V140 9999 NCD 08/04 Q1001

2 marca 2024

Czas Kod Pogoda Temp. Widoczność Sufit Wiatr METAR/SPECI
23:55
V
9 °C 10 km+ - 100° 100° 7 kt METAR EHGG 022255Z AUTO 10007KT 070V140 9999 NCD 09/04 Q1000
23:25
V
9 °C 10 km+ - 100° 100° 6 kt METAR EHGG 022225Z AUTO 10006KT 070V140 9999 NSC 09/04 Q1000
22:55
V
9 °C 10 km+ - 100° 100° 6 kt METAR EHGG 022155Z AUTO 10006KT 070V130 9999 NSC 09/04 Q1000
22:25
V
9 °C 10 km+ - 100° 100° 6 kt METAR EHGG 022125Z AUTO 10006KT 070V140 9999 NSC 09/05 Q1000 NOSIG
21:55
V
10 °C 10 km+ - 110° 110° 6 kt METAR EHGG 022055Z AUTO 11006KT 080V150 9999 NSC 10/05 Q1001 NOSIG
21:25
V
9 °C 10 km+ - 100° 100° 5 kt METAR EHGG 022025Z AUTO 10005KT 070V140 9999 NSC 09/05 Q1001 NOSIG
20:55
V
9 °C 10 km+ - 110° 110° 6 kt METAR EHGG 021955Z AUTO 11006KT 080V150 9999 NSC 09/05 Q1001 NOSIG
20:25
V
9 °C 10 km+ - 110° 110° 6 kt METAR EHGG 021925Z AUTO 11006KT 070V140 9999 NSC 09/05 Q1001 NOSIG
19:55
V
10 °C 10 km+ - 100° 100° 6 kt METAR EHGG 021855Z AUTO 10006KT 060V140 9999 NSC 10/05 Q1001 NOSIG
19:25
V
10 °C 10 km+ - 100° 100° 6 kt METAR EHGG 021825Z AUTO 10006KT 070V130 9999 NSC 10/05 Q1001 NOSIG
18:55
V
10 °C 10 km+ - 090° 090° 5 kt METAR EHGG 021755Z AUTO 09005KT 060V120 9999 NSC 10/04 Q1001 NOSIG
18:25
V
10 °C 10 km+ - 090° 090° 5 kt METAR EHGG 021725Z AUTO 09005KT 9999 NSC 10/05 Q1000 NOSIG
17:55
V
11 °C 10 km+ - 090° 090° 6 kt METAR EHGG 021655Z AUTO 09006KT 060V120 9999 NSC 11/05 Q1000 NOSIG
17:25
V
11 °C 10 km+ - 100° 100° 5 kt METAR EHGG 021625Z AUTO 10005KT 070V130 9999 NSC 11/05 Q1000 NOSIG
16:55
V
12 °C 10 km+ - 110° 110° 6 kt METAR EHGG 021555Z AUTO 11006KT 070V150 9999 NSC 12/04 Q1000 NOSIG
16:25
V
12 °C 10 km+ - 110° 110° 8 kt METAR EHGG 021525Z AUTO 11008KT 060V170 9999 NSC 12/04 Q1001 NOSIG
15:55
V
12 °C 10 km+ - 120° 120° 7 kt METAR EHGG 021455Z AUTO 12007KT 070V170 9999 NSC 12/02 Q1001 NOSIG
15:25
V
12 °C 10 km+ - 140° 140° 10 kt METAR EHGG 021425Z AUTO 14010KT 100V180 9999 NSC 12/03 Q1001 NOSIG
14:55
V
12 °C 10 km+ - 130° 130° 9 kt METAR EHGG 021355Z AUTO 13009KT 070V190 9999 FEW039 12/04 Q1001 NOSIG
14:25
V
12 °C 10 km+ 3.900 ft 130° 130° 10 kt METAR EHGG 021325Z AUTO 13010KT 080V190 9999 SCT035 BKN039 12/03 Q1001 NOSIG
13:55
V
11 °C 10 km+ - 150° 150° 11 kt METAR EHGG 021255Z AUTO 15011KT 120V190 9999 FEW038/// 11/03 Q1001 NOSIG
13:25
V
11 °C 10 km+ 3.800 ft 150° 150° 10 kt METAR EHGG 021225Z AUTO 15010KT 100V190 9999 SCT031/// BKN038/// 11/04 Q1001 NOSIG
12:55
V
11 °C 10 km+ - 170° 170° 10 kt METAR EHGG 021155Z AUTO 17010KT 120V210 9999 FEW032/// 11/04 Q1001 NOSIG
12:25
V
11 °C 10 km+ - 160° 160° 8 kt METAR EHGG 021125Z AUTO 16008KT 120V200 9999 SCT026/// SCT032/// 11/05 Q1002 NOSIG
11:55
M
10 °C 10 km+ 2.500 ft 160° 160° 10 kt METAR EHGG 021055Z AUTO 16010KT 120V200 9999 BKN025 BKN029 10/04 Q1001 NOSIG
11:25
M
10 °C 10 km+ 2.700 ft 160° 160° 9 kt METAR EHGG 021025Z AUTO 16009KT 120V200 9999 FEW024 BKN027 OVC031 10/04 Q1002 NOSIG
10:55
V
9 °C 10 km+ - 170° 170° 9 kt METAR EHGG 020955Z AUTO 17009KT 120V200 9999 FEW028 09/04 Q1002 NOSIG
10:25
M
9 °C 10 km+ 2.600 ft 150° 150° 8 kt METAR EHGG 020925Z AUTO 15008KT 110V200 9999 SCT023 BKN026 BKN032 09/04 Q1002 NOSIG
09:55
M
9 °C 10 km+ 2.900 ft 160° 160° 8 kt METAR EHGG 020855Z AUTO 16008KT 130V210 9999 SCT020 SCT025 OVC029 09/04 Q1001 NOSIG
09:25
V
8 °C 10 km+ - 170° 170° 7 kt METAR EHGG 020825Z AUTO 17007KT 140V200 9999 NSC 08/04 Q1001 NOSIG
08:55
V
7 °C 10 km+ - 150° 150° 6 kt METAR EHGG 020755Z AUTO 15006KT 9999 NCD 07/04 Q1001 NOSIG
08:25
M
7 °C 10 km+ 2.400 ft 150° 150° 4 kt METAR EHGG 020725Z AUTO 15004KT 120V180 9999 OVC024/// 07/04 Q1001 NOSIG
07:55
V
7 °C 10 km+ - 170° 170° 6 kt METAR EHGG 020655Z AUTO 17006KT 9999 FEW029/// 07/03 Q1000 NOSIG
07:25
V
7 °C 10 km+ 3.200 ft 170° 170° 6 kt METAR EHGG 020625Z AUTO 17006KT 140V210 9999 SCT028 BKN032 OVC039 07/04 Q1000 NOSIG
06:55
M
8 °C 10 km+ 2.600 ft 160° 160° 8 kt METAR EHGG 020555Z AUTO 16008KT 130V190 9999 OVC026 08/03 Q1000 NOSIG